sensor_id;sensor_type;location;lat;lon;timestamp;pressure;altitude;pressure_sealevel;temperature;humidity
31403;BME280;18039;52.188;21.024;2023-04-04T00:00:35;78515.13;;;-141.45;69.28
31403;BME280;18039;52.188;21.024;2023-04-04T00:03:15;78519.19;;;-141.45;69.53
31403;BME280;18039;52.188;21.024;2023-04-04T00:05:42;78517.16;;;-141.45;69.58
31403;BME280;18039;52.188;21.024;2023-04-04T00:08:09;78529.31;;;-141.45;69.57
31403;BME280;18039;52.188;21.024;2023-04-04T00:10:36;78535.41;;;-141.45;70.17
31403;BME280;18039;52.188;21.024;2023-04-04T00:13:03;78535.41;;;-141.45;70.25
31403;BME280;18039;52.188;21.024;2023-04-04T00:15:31;78533.38;;;-141.45;70.34
31403;BME280;18039;52.188;21.024;2023-04-04T00:18:03;78543.53;;;-141.45;70.68
31403;BME280;18039;52.188;21.024;2023-04-04T00:20:30;78535.41;;;-141.45;70.97
31403;BME280;18039;52.188;21.024;2023-04-04T00:22:58;78531.34;;;-141.45;71.17
31403;BME280;18039;52.188;21.024;2023-04-04T00:25:25;78547.56;;;-141.45;71.34
31403;BME280;18039;52.188;21.024;2023-04-04T00:27:52;78547.56;;;-141.45;71.69
31403;BME280;18039;52.188;21.024;2023-04-04T00:30:19;78555.69;;;-141.45;71.99
31403;BME280;18039;52.188;21.024;2023-04-04T00:32:46;78559.75;;;-141.45;72.12
31403;BME280;18039;52.188;21.024;2023-04-04T00:35:13;78557.72;;;-141.45;72.10
31403;BME280;18039;52.188;21.024;2023-04-04T00:37:41;78563.81;;;-141.45;72.69
31403;BME280;18039;52.188;21.024;2023-04-04T00:40:08;78567.84;;;-141.45;73.25
31403;BME280;18039;52.188;21.024;2023-04-04T00:42:35;78580.03;;;-141.45;73.44
31403;BME280;18039;52.188;21.024;2023-04-04T00:45:06;78580.03;;;-141.45;73.26
31403;BME280;18039;52.188;21.024;2023-04-04T00:47:33;78571.91;;;-141.45;73.48
31403;BME280;18039;52.188;21.024;2023-04-04T00:50:01;78580.03;;;-141.45;74.06
31403;BME280;18039;52.188;21.024;2023-04-04T00:52:28;78584.09;;;-141.45;74.66
31403;BME280;18039;52.188;21.024;2023-04-04T00:54:56;78590.16;;;-141.45;74.91
31403;BME280;18039;52.188;21.024;2023-04-04T00:57:23;78588.13;;;-141.45;75.03
31403;BME280;18039;52.188;21.024;2023-04-04T00:59:50;78602.34;;;-141.45;75.26
31403;BME280;18039;52.188;21.024;2023-04-04T01:02:18;78598.28;;;-141.45;75.69
31403;BME280;18039;52.188;21.024;2023-04-04T01:04:45;78600.31;;;-141.45;75.49
31403;BME280;18039;52.188;21.024;2023-04-04T01:07:13;78596.25;;;-141.45;75.82
31403;BME280;18039;52.188;21.024;2023-04-04T01:09:40;78600.31;;;-141.45;76.47
31403;BME280;18039;52.188;21.024;2023-04-04T01:12:07;78614.50;;;-141.45;76.78
31403;BME280;18039;52.188;21.024;2023-04-04T01:14:35;78612.47;;;-141.45;76.81
31403;BME280;18039;52.188;21.024;2023-04-04T01:17:03;78608.44;;;-141.45;77.29
31403;BME280;18039;52.188;21.024;2023-04-04T01:19:44;78620.59;;;-141.45;77.35
31403;BME280;18039;52.188;21.024;2023-04-04T01:22:17;78612.47;;;-141.45;77.86
31403;BME280;18039;52.188;21.024;2023-04-04T01:24:45;78624.66;;;-141.45;78.02
31403;BME280;18039;52.188;21.024;2023-04-04T01:27:13;78620.59;;;-141.45;77.98
31403;BME280;18039;52.188;21.024;2023-04-04T01:29:47;78616.53;;;-141.45;78.51
31403;BME280;18039;52.188;21.024;2023-04-04T01:32:19;78628.72;;;-141.45;78.34
31403;BME280;18039;52.188;21.024;2023-04-04T01:37:22;78632.75;;;-141.45;78.87
31403;BME280;18039;52.188;21.024;2023-04-04T01:40:10;78628.72;;;-141.45;79.32
31403;BME280;18039;52.188;21.024;2023-04-04T01:42:39;78628.72;;;-141.45;79.34
31403;BME280;18039;52.188;21.024;2023-04-04T01:45:09;78628.72;;;-141.45;79.46
31403;BME280;18039;52.188;21.024;2023-04-04T01:47:40;78640.88;;;-141.45;79.64
31403;BME280;18039;52.188;21.024;2023-04-04T01:50:11;78638.84;;;-141.45;79.66
31403;BME280;18039;52.188;21.024;2023-04-04T01:52:38;78638.84;;;-141.45;79.70
31403;BME280;18039;52.188;21.024;2023-04-04T01:55:06;78632.75;;;-141.45;79.66
31403;BME280;18039;52.188;21.024;2023-04-04T01:57:34;78634.78;;;-141.45;80.02
31403;BME280;18039;52.188;21.024;2023-04-04T02:00:02;78632.75;;;-141.45;79.88
31403;BME280;18039;52.188;21.024;2023-04-04T02:02:41;78653.03;;;-141.45;80.14
31403;BME280;18039;52.188;21.024;2023-04-04T02:05:10;78649.00;;;-141.45;80.20
31403;BME280;18039;52.188;21.024;2023-04-04T02:07:37;78651.03;;;-141.45;80.55
31403;BME280;18039;52.188;21.024;2023-04-04T02:10:12;78659.13;;;-141.45;80.43
31403;BME280;18039;52.188;21.024;2023-04-04T02:12:39;78657.09;;;-141.45;80.59
31403;BME280;18039;52.188;21.024;2023-04-04T02:15:07;78661.16;;;-141.45;81.31
31403;BME280;18039;52.188;21.024;2023-04-04T02:17:35;78659.13;;;-141.45;81.31
31403;BME280;18039;52.188;21.024;2023-04-04T02:20:03;78661.16;;;-141.45;81.33
31403;BME280;18039;52.188;21.024;2023-04-04T02:22:31;78665.22;;;-141.45;81.23
31403;BME280;18039;52.188;21.024;2023-04-04T02:24:59;78663.19;;;-141.45;81.86
31403;BME280;18039;52.188;21.024;2023-04-04T02:27:28;78669.28;;;-141.45;82.06
31403;BME280;18039;52.188;21.024;2023-04-04T02:29:56;78677.38;;;-141.45;82.33
31403;BME280;18039;52.188;21.024;2023-04-04T02:32:23;78677.38;;;-141.45;81.87
31403;BME280;18039;52.188;21.024;2023-04-04T02:34:51;78681.44;;;-141.45;82.23
31403;BME280;18039;52.188;21.024;2023-04-04T02:37:18;78671.31;;;-141.45;82.08
31403;BME280;18039;52.188;21.024;2023-04-04T02:39:49;78689.56;;;-141.45;82.26
31403;BME280;18039;52.188;21.024;2023-04-04T02:42:16;78677.38;;;-141.45;82.35
31403;BME280;18039;52.188;21.024;2023-04-04T02:44:44;78693.63;;;-141.45;82.22
31403;BME280;18039;52.188;21.024;2023-04-04T02:47:14;78693.63;;;-141.45;82.75
31403;BME280;18039;52.188;21.024;2023-04-04T02:49:44;78695.63;;;-141.45;82.67
31403;BME280;18039;52.188;21.024;2023-04-04T02:52:14;78681.44;;;-141.45;82.62
31403;BME280;18039;52.188;21.024;2023-04-04T02:54:47;78689.56;;;-141.45;82.83
31403;BME280;18039;52.188;21.024;2023-04-04T02:57:27;78705.78;;;-141.45;82.99
31403;BME280;18039;52.188;21.024;2023-04-04T02:59:54;78709.84;;;-141.45;83.41
31403;BME280;18039;52.188;21.024;2023-04-04T03:02:23;78709.84;;;-141.45;83.75
31403;BME280;18039;52.188;21.024;2023-04-04T03:04:51;78709.84;;;-141.45;83.56
31403;BME280;18039;52.188;21.024;2023-04-04T03:07:18;78719.97;;;-141.45;83.87
31403;BME280;18039;52.188;21.024;2023-04-04T03:09:51;78713.91;;;-141.45;83.92
31403;BME280;18039;52.188;21.024;2023-04-04T03:12:19;78722.00;;;-141.45;84.15
31403;BME280;18039;52.188;21.024;2023-04-04T03:14:49;78715.94;;;-141.45;83.57
31403;BME280;18039;52.188;21.024;2023-04-04T03:17:16;78713.91;;;-141.45;83.34
31403;BME280;18039;52.188;21.024;2023-04-04T03:19:45;78722.00;;;-141.45;83.99
31403;BME280;18039;52.188;21.024;2023-04-04T03:22:12;78738.22;;;-141.45;84.35
31403;BME280;18039;52.188;21.024;2023-04-04T03:24:40;78728.09;;;-141.45;84.18
31403;BME280;18039;52.188;21.024;2023-04-04T03:27:07;78722.00;;;-141.45;84.15
31403;BME280;18039;52.188;21.024;2023-04-04T03:29:34;78728.09;;;-141.45;84.49
31403;BME280;18039;52.188;21.024;2023-04-04T03:32:02;78730.13;;;-141.45;84.26
31403;BME280;18039;52.188;21.024;2023-04-04T03:34:29;78728.09;;;-141.45;84.77
31403;BME280;18039;52.188;21.024;2023-04-04T03:36:57;78740.25;;;-141.45;84.68
31403;BME280;18039;52.188;21.024;2023-04-04T03:39:27;78726.06;;;-141.45;84.57
31403;BME280;18039;52.188;21.024;2023-04-04T03:41:56;78728.09;;;-141.45;85.04
31403;BME280;18039;52.188;21.024;2023-04-04T03:44:24;78726.06;;;-141.45;84.95
31403;BME280;18039;52.188;21.024;2023-04-04T03:46:51;78730.13;;;-141.45;84.95
31403;BME280;18039;52.188;21.024;2023-04-04T03:49:18;78730.13;;;-141.45;85.04
31403;BME280;18039;52.188;21.024;2023-04-04T03:51:45;78736.22;;;-141.45;85.24
31403;BME280;18039;52.188;21.024;2023-04-04T03:54:13;78734.19;;;-141.45;84.64
31403;BME280;18039;52.188;21.024;2023-04-04T03:56:40;78738.22;;;-141.45;85.22
31403;BME280;18039;52.188;21.024;2023-04-04T03:59:07;78736.22;;;-141.45;84.97
31403;BME280;18039;52.188;21.024;2023-04-04T04:01:34;78742.28;;;-141.45;85.16
31403;BME280;18039;52.188;21.024;2023-04-04T04:04:02;78742.28;;;-141.45;84.82
31403;BME280;18039;52.188;21.024;2023-04-04T04:06:29;78750.41;;;-141.45;85.36
31403;BME280;18039;52.188;21.024;2023-04-04T04:08:56;78742.28;;;-141.45;85.04
31403;BME280;18039;52.188;21.024;2023-04-04T04:11:24;78738.22;;;-141.45;85.08
31403;BME280;18039;52.188;21.024;2023-04-04T04:13:51;78744.31;;;-141.45;85.08
31403;BME280;18039;52.188;21.024;2023-04-04T04:16:18;78730.13;;;-141.45;84.87
31403;BME280;18039;52.188;21.024;2023-04-04T04:18:47;78740.25;;;-141.45;85.18
31403;BME280;18039;52.188;21.024;2023-04-04T04:21:22;78738.22;;;-141.45;85.12
31403;BME280;18039;52.188;21.024;2023-04-04T04:23:52;78730.13;;;-141.45;85.40
31403;BME280;18039;52.188;21.024;2023-04-04T04:26:23;78717.94;;;-141.45;84.63
31403;BME280;18039;52.188;21.024;2023-04-04T04:28:50;78717.94;;;-141.45;85.09
31403;BME280;18039;52.188;21.024;2023-04-04T04:31:25;78719.97;;;-141.45;85.04
31403;BME280;18039;52.188;21.024;2023-04-04T04:33:55;78711.88;;;-141.45;84.85
31403;BME280;18039;52.188;21.024;2023-04-04T04:36:26;78722.00;;;-141.45;85.25
31403;BME280;18039;52.188;21.024;2023-04-04T04:39:17;78713.91;;;-141.45;84.90
31403;BME280;18039;52.188;21.024;2023-04-04T04:41:58;78699.69;;;-141.45;84.34
31403;BME280;18039;52.188;21.024;2023-04-04T04:44:26;78713.91;;;-141.45;84.35
31403;BME280;18039;52.188;21.024;2023-04-04T04:46:54;78705.78;;;-141.45;84.61
31403;BME280;18039;52.188;21.024;2023-04-04T04:49:22;78705.78;;;-141.45;84.35
31403;BME280;18039;52.188;21.024;2023-04-04T04:51:50;78701.72;;;-141.45;84.64
31403;BME280;18039;52.188;21.024;2023-04-04T04:54:19;78711.88;;;-141.45;84.76
31403;BME280;18039;52.188;21.024;2023-04-04T04:56:51;78697.66;;;-141.45;84.50
31403;BME280;18039;52.188;21.024;2023-04-04T04:59:19;78689.56;;;-141.45;84.26
31403;BME280;18039;52.188;21.024;2023-04-04T05:01:46;78685.50;;;-141.45;83.79
31403;BME280;18039;52.188;21.024;2023-04-04T05:04:15;78673.31;;;-141.45;83.81
31403;BME280;18039;52.188;21.024;2023-04-04T05:06:56;78669.28;;;-141.45;83.26
31403;BME280;18039;52.188;21.024;2023-04-04T05:09:24;78655.06;;;-141.45;83.39
31403;BME280;18039;52.188;21.024;2023-04-04T05:11:51;78653.03;;;-141.45;83.13
31403;BME280;18039;52.188;21.024;2023-04-04T05:14:22;78644.94;;;-141.45;83.59
31403;BME280;18039;52.188;21.024;2023-04-04T05:16:54;78640.88;;;-141.45;83.15
31403;BME280;18039;52.188;21.024;2023-04-04T05:19:25;78630.72;;;-141.45;82.35
31403;BME280;18039;52.188;21.024;2023-04-04T05:21:55;78624.66;;;-141.45;82.33
31403;BME280;18039;52.188;21.024;2023-04-04T05:24:43;78624.66;;;-141.45;81.75
31403;BME280;18039;52.188;21.024;2023-04-04T05:27:14;78612.47;;;-141.45;81.29
31403;BME280;18039;52.188;21.024;2023-04-04T05:29:46;78608.44;;;-141.45;81.17
31403;BME280;18039;52.188;21.024;2023-04-04T05:32:14;78608.44;;;-141.45;80.56
31403;BME280;18039;52.188;21.024;2023-04-04T05:34:48;78602.34;;;-141.45;80.69
31403;BME280;18039;52.188;21.024;2023-04-04T05:37:18;78588.13;;;-141.45;80.66
31403;BME280;18039;52.188;21.024;2023-04-04T05:39:48;78588.13;;;-141.45;80.76
31403;BME280;18039;52.188;21.024;2023-04-04T05:42:16;78580.03;;;-141.45;80.27
31403;BME280;18039;52.188;21.024;2023-04-04T05:44:49;78571.91;;;-141.45;79.77
31403;BME280;18039;52.188;21.024;2023-04-04T05:47:16;78567.84;;;-141.45;79.14
31403;BME280;18039;52.188;21.024;2023-04-04T05:49:45;78559.75;;;-141.45;79.83
31403;BME280;18039;52.188;21.024;2023-04-04T05:52:12;78551.63;;;-141.45;79.83
31403;BME280;18039;52.188;21.024;2023-04-04T05:54:40;78539.47;;;-141.45;79.64
31403;BME280;18039;52.188;21.024;2023-04-04T05:57:14;78533.38;;;-141.45;78.62
31403;BME280;18039;52.188;21.024;2023-04-04T05:59:46;78535.41;;;-141.45;78.27
31403;BME280;18039;52.188;21.024;2023-04-04T06:02:15;78523.25;;;-141.45;77.98
31403;BME280;18039;52.188;21.024;2023-04-04T06:04:56;78523.25;;;-141.45;77.91
31403;BME280;18039;52.188;21.024;2023-04-04T06:07:36;78511.06;;;-141.45;77.26
31403;BME280;18039;52.188;21.024;2023-04-04T06:10:04;78498.91;;;-141.45;77.15
31403;BME280;18039;52.188;21.024;2023-04-04T06:12:33;78494.84;;;-141.45;76.04
31403;BME280;18039;52.188;21.024;2023-04-04T06:15:07;78492.81;;;-141.45;76.59
31403;BME280;18039;52.188;21.024;2023-04-04T06:17:36;78482.66;;;-141.45;76.40
31403;BME280;18039;52.188;21.024;2023-04-04T06:20:07;78466.44;;;-141.45;76.56
31403;BME280;18039;52.188;21.024;2023-04-04T06:22:34;78450.22;;;-141.45;76.27
31403;BME280;18039;52.188;21.024;2023-04-04T06:25:03;78438.06;;;-141.45;76.02
31403;BME280;18039;52.188;21.024;2023-04-04T06:27:31;78427.91;;;-141.45;75.55
31403;BME280;18039;52.188;21.024;2023-04-04T06:30:02;78417.78;;;-141.45;73.95
31403;BME280;18039;52.188;21.024;2023-04-04T06:32:30;78442.09;;;-141.45;73.85
31403;BME280;18039;52.188;21.024;2023-04-04T06:34:58;78446.16;;;-141.45;73.84
31403;BME280;18039;52.188;21.024;2023-04-04T06:37:40;78438.06;;;-141.45;74.05
31403;BME280;18039;52.188;21.024;2023-04-04T06:40:13;78429.94;;;-141.45;74.28
31403;BME280;18039;52.188;21.024;2023-04-04T06:42:49;78421.81;;;-141.45;73.52
31403;BME280;18039;52.188;21.024;2023-04-04T06:45:17;78399.50;;;-141.45;73.32
31403;BME280;18039;52.188;21.024;2023-04-04T06:47:44;78381.25;;;-141.45;72.97
31403;BME280;18039;52.188;21.024;2023-04-04T06:50:12;78373.16;;;-141.45;70.96
31403;BME280;18039;52.188;21.024;2023-04-04T06:52:42;78377.22;;;-141.45;70.92
31403;BME280;18039;52.188;21.024;2023-04-04T06:55:11;78375.19;;;-141.45;70.31
31403;BME280;18039;52.188;21.024;2023-04-04T06:57:39;78365.03;;;-141.45;71.46
31403;BME280;18039;52.188;21.024;2023-04-04T07:00:08;78352.88;;;-141.45;70.85
31403;BME280;18039;52.188;21.024;2023-04-04T07:02:36;78332.59;;;-141.45;70.14
31403;BME280;18039;52.188;21.024;2023-04-04T07:05:04;78324.47;;;-141.45;69.02
31403;BME280;18039;52.188;21.024;2023-04-04T07:07:32;78320.41;;;-141.45;68.54
31403;BME280;18039;52.188;21.024;2023-04-04T07:09:59;78332.59;;;-141.45;67.83
31403;BME280;18039;52.188;21.024;2023-04-04T07:12:27;78324.47;;;-141.45;69.07
31403;BME280;18039;52.188;21.024;2023-04-04T07:14:54;78310.28;;;-141.45;68.88
31403;BME280;18039;52.188;21.024;2023-04-04T07:17:21;78304.19;;;-141.45;67.07
31403;BME280;18039;52.188;21.024;2023-04-04T07:19:51;78310.28;;;-141.45;66.31
31403;BME280;18039;52.188;21.024;2023-04-04T07:22:18;78310.28;;;-141.45;66.24
31403;BME280;18039;52.188;21.024;2023-04-04T07:24:45;78324.47;;;-141.45;67.14
31403;BME280;18039;52.188;21.024;2023-04-04T07:27:14;78320.41;;;-141.45;67.87
31403;BME280;18039;52.188;21.024;2023-04-04T07:29:42;78320.41;;;-141.45;67.23
31403;BME280;18039;52.188;21.024;2023-04-04T07:32:09;78296.09;;;-141.45;68.18
31403;BME280;18039;52.188;21.024;2023-04-04T07:34:37;78263.63;;;-141.45;67.66
31403;BME280;18039;52.188;21.024;2023-04-04T07:37:04;78255.53;;;-141.45;64.87
31403;BME280;18039;52.188;21.024;2023-04-04T07:39:31;78263.63;;;-141.45;64.43
31403;BME280;18039;52.188;21.024;2023-04-04T07:41:59;78259.56;;;-141.45;64.80
31403;BME280;18039;52.188;21.024;2023-04-04T07:44:26;78251.47;;;-141.45;65.45
31403;BME280;18039;52.188;21.024;2023-04-04T07:46:54;78241.31;;;-141.45;64.73
31403;BME280;18039;52.188;21.024;2023-04-04T07:49:36;78227.13;;;-141.45;63.85
31403;BME280;18039;52.188;21.024;2023-04-04T07:52:04;78212.94;;;-141.45;63.62
31403;BME280;18039;52.188;21.024;2023-04-04T07:54:31;78206.84;;;-141.45;62.98
31403;BME280;18039;52.188;21.024;2023-04-04T07:56:58;78210.91;;;-141.45;63.67
31403;BME280;18039;52.188;21.024;2023-04-04T07:59:25;78198.72;;;-141.45;63.47
31403;BME280;18039;52.188;21.024;2023-04-04T08:01:52;78170.34;;;-141.45;64.10
31403;BME280;18039;52.188;21.024;2023-04-04T08:04:20;78131.81;;;-141.45;64.18
31403;BME280;18039;52.188;21.024;2023-04-04T08:06:48;78105.44;;;-141.45;61.01
31403;BME280;18039;52.188;21.024;2023-04-04T08:09:18;78103.41;;;-141.45;60.29
31403;BME280;18039;52.188;21.024;2023-04-04T08:11:46;78105.44;;;-141.45;59.76
31403;BME280;18039;52.188;21.024;2023-04-04T08:14:13;78109.50;;;-141.45;59.57
31403;BME280;18039;52.188;21.024;2023-04-04T08:16:40;78101.38;;;-141.45;60.00
31403;BME280;18039;52.188;21.024;2023-04-04T08:19:08;78093.28;;;-141.45;60.44
31403;BME280;18039;52.188;21.024;2023-04-04T08:21:35;78097.34;;;-141.45;59.78
31403;BME280;18039;52.188;21.024;2023-04-04T08:24:03;78085.16;;;-141.45;58.55
31403;BME280;18039;52.188;21.024;2023-04-04T08:26:30;78081.09;;;-141.45;58.24
31403;BME280;18039;52.188;21.024;2023-04-04T08:28:57;78056.78;;;-141.45;58.46
31403;BME280;18039;52.188;21.024;2023-04-04T08:31:24;78030.41;;;-141.45;57.78
31403;BME280;18039;52.188;21.024;2023-04-04T08:33:52;78016.22;;;-141.45;56.99
31403;BME280;18039;52.188;21.024;2023-04-04T08:36:19;78028.38;;;-141.45;56.49
31403;BME280;18039;52.188;21.024;2023-04-04T08:38:47;78024.31;;;-141.45;57.21
31403;BME280;18039;52.188;21.024;2023-04-04T08:41:13;78028.38;;;-141.45;57.59
31403;BME280;18039;52.188;21.024;2023-04-04T08:43:46;78040.56;;;-141.45;56.27
31403;BME280;18039;52.188;21.024;2023-04-04T08:46:21;78028.38;;;-141.45;56.36
31403;BME280;18039;52.188;21.024;2023-04-04T08:48:55;78036.50;;;-141.45;57.20
31403;BME280;18039;52.188;21.024;2023-04-04T08:51:23;78036.50;;;-141.45;58.20
31403;BME280;18039;52.188;21.024;2023-04-04T08:53:53;78064.88;;;-141.45;59.67
31403;BME280;18039;52.188;21.024;2023-04-04T08:56:21;78062.84;;;-141.45;60.88
31403;BME280;18039;52.188;21.024;2023-04-04T08:58:49;78038.53;;;-141.45;59.99
31403;BME280;18039;52.188;21.024;2023-04-04T09:01:17;78048.66;;;-141.45;59.97
31403;BME280;18039;52.188;21.024;2023-04-04T09:03:44;78040.56;;;-141.45;57.40
31403;BME280;18039;52.188;21.024;2023-04-04T09:06:13;78046.63;;;-141.45;57.64
31403;BME280;18039;52.188;21.024;2023-04-04T09:08:42;78064.88;;;-141.45;58.51
31403;BME280;18039;52.188;21.024;2023-04-04T09:11:10;78060.81;;;-141.45;58.25
31403;BME280;18039;52.188;21.024;2023-04-04T09:13:40;78052.72;;;-141.45;57.72
31403;BME280;18039;52.188;21.024;2023-04-04T09:16:08;78054.75;;;-141.45;57.25
31403;BME280;18039;52.188;21.024;2023-04-04T09:18:36;78066.91;;;-141.45;56.39
31403;BME280;18039;52.188;21.024;2023-04-04T09:21:10;78068.94;;;-141.45;56.27
31403;BME280;18039;52.188;21.024;2023-04-04T09:23:38;78054.75;;;-141.45;56.30
31403;BME280;18039;52.188;21.024;2023-04-04T09:26:05;78044.59;;;-141.45;55.40
31403;BME280;18039;52.188;21.024;2023-04-04T09:28:32;78024.31;;;-141.45;55.10
31403;BME280;18039;52.188;21.024;2023-04-04T09:31:02;77987.81;;;-141.45;55.19
31403;BME280;18039;52.188;21.024;2023-04-04T09:33:32;77955.38;;;-141.45;53.99
31403;BME280;18039;52.188;21.024;2023-04-04T09:36:07;77922.94;;;-141.45;53.10
31403;BME280;18039;52.188;21.024;2023-04-04T09:38:39;77888.47;;;-141.45;51.63
31403;BME280;18039;52.188;21.024;2023-04-04T09:41:12;77914.81;;;-141.45;49.93
31403;BME280;18039;52.188;21.024;2023-04-04T09:43:43;77947.25;;;-141.45;51.52
31403;BME280;18039;52.188;21.024;2023-04-04T09:46:11;77971.59;;;-141.45;50.10
31403;BME280;18039;52.188;21.024;2023-04-04T09:48:38;77971.59;;;-141.45;49.33
31403;BME280;18039;52.188;21.024;2023-04-04T09:51:06;77963.50;;;-141.45;48.65
31403;BME280;18039;52.188;21.024;2023-04-04T09:53:34;77959.44;;;-141.45;48.34
31403;BME280;18039;52.188;21.024;2023-04-04T09:56:03;77977.69;;;-141.45;48.92
31403;BME280;18039;52.188;21.024;2023-04-04T09:58:32;77979.72;;;-141.45;49.74
31403;BME280;18039;52.188;21.024;2023-04-04T10:01:06;77975.66;;;-141.45;49.55
31403;BME280;18039;52.188;21.024;2023-04-04T10:03:36;77963.50;;;-141.45;50.50
31403;BME280;18039;52.188;21.024;2023-04-04T10:06:08;77937.13;;;-141.45;49.40
31403;BME280;18039;52.188;21.024;2023-04-04T10:08:39;77939.16;;;-141.45;48.08
31403;BME280;18039;52.188;21.024;2023-04-04T10:11:07;77922.94;;;-141.45;48.27
31403;BME280;18039;52.188;21.024;2023-04-04T10:13:39;77914.81;;;-141.45;47.53
31403;BME280;18039;52.188;21.024;2023-04-04T10:16:08;77926.97;;;-141.45;48.61
31403;BME280;18039;52.188;21.024;2023-04-04T10:18:37;77939.16;;;-141.45;47.06
31403;BME280;18039;52.188;21.024;2023-04-04T10:21:05;77955.38;;;-141.45;47.86
31403;BME280;18039;52.188;21.024;2023-04-04T10:23:37;77959.44;;;-141.45;48.21
31403;BME280;18039;52.188;21.024;2023-04-04T10:26:05;77947.25;;;-141.45;48.14
31403;BME280;18039;52.188;21.024;2023-04-04T10:28:32;77902.66;;;-141.45;47.48
31403;BME280;18039;52.188;21.024;2023-04-04T10:31:16;77858.03;;;-141.45;46.89
31403;BME280;18039;52.188;21.024;2023-04-04T10:36:45;77866.16;;;-141.45;45.36
31403;BME280;18039;52.188;21.024;2023-04-04T10:39:37;77862.09;;;-141.45;45.02
31403;BME280;18039;52.188;21.024;2023-04-04T10:42:06;77870.22;;;-141.45;43.92
31403;BME280;18039;52.188;21.024;2023-04-04T10:44:38;77878.31;;;-141.45;45.19
31403;BME280;18039;52.188;21.024;2023-04-04T10:47:20;77882.38;;;-141.45;45.52
31403;BME280;18039;52.188;21.024;2023-04-04T10:49:49;77898.59;;;-141.45;46.94
31403;BME280;18039;52.188;21.024;2023-04-04T10:52:22;77918.88;;;-141.45;47.19
31403;BME280;18039;52.188;21.024;2023-04-04T10:54:53;77943.22;;;-141.45;47.87
31403;BME280;18039;52.188;21.024;2023-04-04T10:57:22;77922.94;;;-141.45;47.63
31403;BME280;18039;52.188;21.024;2023-04-04T11:00:00;77902.66;;;-141.45;49.36
31403;BME280;18039;52.188;21.024;2023-04-04T11:02:57;77870.22;;;-141.45;48.12
31403;BME280;18039;52.188;21.024;2023-04-04T11:05:29;77837.75;;;-141.45;48.91
31403;BME280;18039;52.188;21.024;2023-04-04T11:07:58;77821.53;;;-141.45;46.94
31403;BME280;18039;52.188;21.024;2023-04-04T11:10:42;77817.47;;;-141.45;46.17
31403;BME280;18039;52.188;21.024;2023-04-04T11:15:56;77904.69;;;-141.45;47.12
31403;BME280;18039;52.188;21.024;2023-04-04T11:21:09;77914.81;;;-141.45;47.52
31403;BME280;18039;52.188;21.024;2023-04-04T11:28:51;77898.59;;;-141.45;47.17
31403;BME280;18039;52.188;21.024;2023-04-04T11:39:12;77910.75;;;-141.45;48.90
31403;BME280;18039;52.188;21.024;2023-04-04T11:41:47;77898.59;;;-141.45;47.96
31403;BME280;18039;52.188;21.024;2023-04-04T11:44:15;77918.88;;;-141.45;47.55
31403;BME280;18039;52.188;21.024;2023-04-04T11:46:44;77914.81;;;-141.45;47.84
31403;BME280;18039;52.188;21.024;2023-04-04T11:49:15;77931.03;;;-141.45;48.30
31403;BME280;18039;52.188;21.024;2023-04-04T11:51:44;77922.94;;;-141.45;49.91
31403;BME280;18039;52.188;21.024;2023-04-04T11:54:15;77926.97;;;-141.45;51.55
31403;BME280;18039;52.188;21.024;2023-04-04T11:56:43;77971.59;;;-141.45;52.24
31403;BME280;18039;52.188;21.024;2023-04-04T11:59:11;77949.28;;;-141.45;52.91
31403;BME280;18039;52.188;21.024;2023-04-04T12:01:39;77959.44;;;-141.45;53.29
31403;BME280;18039;52.188;21.024;2023-04-04T12:04:08;77943.22;;;-141.45;53.41
31403;BME280;18039;52.188;21.024;2023-04-04T12:06:35;77939.16;;;-141.45;52.76
31403;BME280;18039;52.188;21.024;2023-04-04T12:09:04;77951.31;;;-141.45;51.59
31403;BME280;18039;52.188;21.024;2023-04-04T12:11:35;77951.31;;;-141.45;51.93
31403;BME280;18039;52.188;21.024;2023-04-04T12:14:03;77939.16;;;-141.45;52.38
31403;BME280;18039;52.188;21.024;2023-04-04T12:16:30;77922.94;;;-141.45;52.33
31403;BME280;18039;52.188;21.024;2023-04-04T12:19:00;77910.75;;;-141.45;51.60
31403;BME280;18039;52.188;21.024;2023-04-04T12:21:30;77926.97;;;-141.45;51.78
31403;BME280;18039;52.188;21.024;2023-04-04T12:23:58;77939.16;;;-141.45;52.11
31403;BME280;18039;52.188;21.024;2023-04-04T12:26:26;77967.53;;;-141.45;52.59
31403;BME280;18039;52.188;21.024;2023-04-04T12:28:57;78012.16;;;-141.45;54.84
31403;BME280;18039;52.188;21.024;2023-04-04T12:31:27;78028.38;;;-141.45;56.18
31403;BME280;18039;52.188;21.024;2023-04-04T12:33:55;78036.50;;;-141.45;55.97
31403;BME280;18039;52.188;21.024;2023-04-04T12:36:28;78034.47;;;-141.45;56.45
31403;BME280;18039;52.188;21.024;2023-04-04T12:39:09;78024.31;;;-141.45;55.62
31403;BME280;18039;52.188;21.024;2023-04-04T12:41:49;78040.56;;;-141.45;56.80
31403;BME280;18039;52.188;21.024;2023-04-04T12:44:50;78044.59;;;-141.45;56.46
31403;BME280;18039;52.188;21.024;2023-04-04T12:47:21;78048.66;;;-141.45;57.13
31403;BME280;18039;52.188;21.024;2023-04-04T12:49:52;78020.28;;;-141.45;57.17
31403;BME280;18039;52.188;21.024;2023-04-04T12:52:26;77991.88;;;-141.45;56.86
31403;BME280;18039;52.188;21.024;2023-04-04T12:54:58;77971.59;;;-141.45;56.51
31403;BME280;18039;52.188;21.024;2023-04-04T12:57:36;77943.22;;;-141.45;56.68
31403;BME280;18039;52.188;21.024;2023-04-04T13:00:06;77939.16;;;-141.45;55.22
31403;BME280;18039;52.188;21.024;2023-04-04T13:02:36;77939.16;;;-141.45;55.10
31403;BME280;18039;52.188;21.024;2023-04-04T13:05:04;77933.06;;;-141.45;55.45
31403;BME280;18039;52.188;21.024;2023-04-04T13:07:35;77935.09;;;-141.45;55.54